Hermann - S — V2EI6 — position and weather

sailwx.info

Track history (hours):
 
Tides and Currents Weather Stations Pressure Air Temp Water Temp Dewpoint Dewpoint Depression Visibility Wind Speed Wind Dir Waves Ship Positions

Hermann - S

Last reported at 2014-Jul-29 16:32 UTC. Time now 2014-Jul-29 16:49 UTC.
Position N 38°59' E 117°44'.

Length 190 m; draft 7.9 m.

Type: Cargo ship. MMSI: 305441000.

Date/timePositionNaut miles runAvg speedWind from/ knotsBaromVisibWave heightAir tempDewpointWater temp
2014-Jul-29 16:32N 38°59' E 117°44'0 0.0
2014-Jul-29 15:32N 38°59' E 117°44'0 0.0
2014-Jul-29 14:32N 38°59' E 117°44'0 0.0
2014-Jul-29 13:32N 38°59' E 117°44'0 0.0
2014-Jul-29 12:32N 38°59' E 117°44'0 0.0
2014-Jul-29 11:32N 38°59' E 117°44'0 0.0
2014-Jul-29 10:29N 38°59' E 117°44'0 0.0
2014-Jul-29 09:32N 38°59' E 117°44'0 0.0
2014-Jul-29 08:32N 38°59' E 117°44'0 0.0
2014-Jul-29 07:32N 38°59' E 117°44'0 0.0
2014-Jul-29 06:32N 38°59' E 117°44'0 0.0
2014-Jul-29 05:33N 38°59' E 117°44'0 0.0
2014-Jul-29 04:32N 38°59' E 117°44'0 0.0
2014-Jul-29 03:32N 38°59' E 117°44'0 0.0
2014-Jul-29 02:32N 38°59' E 117°44'0 0.0
2014-Jul-29 01:32N 38°59' E 117°44'0 0.0
2014-Jul-29 00:32N 38°59' E 117°44'0 0.0
2014-Jul-28 23:32N 38°59' E 117°44'2 2.4
2014-Jul-28 22:33N 38°58' E 117°47'8 8.1
2014-Jul-28 21:33N 38°57' E 117°57'5 2.5
2014-Jul-28 19:33N 38°57' E 118°03'0 0.0
2014-Jul-28 18:03N 38°57' E 118°03'0 0.0
2014-Jul-28 17:24N 38°57' E 118°03'0 0.0
2014-Jul-28 16:30N 38°57' E 118°03'0 0.0
2014-Jul-28 15:30N 38°57' E 118°03'0 0.1
2014-Jul-28 14:27N 38°57' E 118°04'0 0.0
2014-Jul-28 13:33N 38°57' E 118°04'0 0.0
2014-Jul-28 12:33N 38°57' E 118°04'0 0.1
2014-Jul-28 11:12N 38°57' E 118°04'0 0.1
2014-Jul-28 10:18N 38°57' E 118°04'0 0.0
2014-Jul-28 09:33N 38°57' E 118°04'0 0.0
2014-Jul-28 08:27N 38°57' E 118°03'0 0.0
2014-Jul-28 07:27N 38°57' E 118°03'0 0.0
2014-Jul-28 06:33N 38°57' E 118°03'0 0.0
2014-Jul-28 05:21N 38°57' E 118°03'0 0.1
2014-Jul-28 04:33N 38°57' E 118°03'0 0.0
2014-Jul-28 03:30N 38°57' E 118°03'0 0.2
2014-Jul-28 02:33N 38°57' E 118°04'0 0.0
2014-Jul-28 01:33N 38°57' E 118°04'0 0.0
2014-Jul-28 00:30N 38°57' E 118°04'0 0.0
2014-Jul-27 23:33N 38°57' E 118°04'0 0.0
2014-Jul-27 20:30N 38°57' E 118°04'0 0.1
2014-Jul-27 19:27N 38°57' E 118°04'0 0.1
2014-Jul-27 18:33N 38°57' E 118°03'0 0.0
2014-Jul-27 17:30N 38°57' E 118°03'0 0.0
2014-Jul-27 16:30N 38°57' E 118°03'0 0.0
2014-Jul-27 15:30N 38°57' E 118°03'0 0.0
2014-Jul-27 14:33N 38°57' E 118°04'0 0.1
2014-Jul-27 13:30N 38°57' E 118°04'0 0.0
2014-Jul-27 12:33N 38°57' E 118°04'0 0.1
2014-Jul-27 11:30N 38°57' E 118°04'0 0.1
2014-Jul-27 10:27N 38°57' E 118°04'0 0.0
2014-Jul-27 09:18N 38°57' E 118°04'0 0.0
2014-Jul-27 08:30N 38°57' E 118°04'0 0.0
2014-Jul-27 07:24N 38°57' E 118°03'0 0.0
2014-Jul-27 06:33N 38°57' E 118°03'0 0.0
2014-Jul-27 05:30N 38°57' E 118°03'0 0.0
2014-Jul-27 04:24N 38°57' E 118°03'0 0.0
2014-Jul-27 03:33N 38°57' E 118°03'0 0.1
2014-Jul-27 02:12N 38°57' E 118°04'0 0.0
2014-Jul-27 01:21N 38°57' E 118°04'0 0.0
2014-Jul-27 00:33N 38°57' E 118°04'0 0.0
2014-Jul-26 23:33N 38°57' E 118°04'0 0.0
2014-Jul-26 22:06N 38°57' E 118°04'0 0.0
2014-Jul-26 21:24N 38°57' E 118°04'0 0.0
2014-Jul-26 20:30N 38°57' E 118°04'0 0.1
2014-Jul-26 19:33N 38°57' E 118°04'0 0.1
2014-Jul-26 18:27N 38°57' E 118°04'0 0.1
2014-Jul-26 17:33N 38°57' E 118°03'0 0.0
2014-Jul-26 16:33N 38°57' E 118°03'0 0.0
2014-Jul-26 15:24N 38°57' E 118°03'0 0.0
2014-Jul-26 14:30N 38°57' E 118°03'0 0.1
2014-Jul-26 13:30N 38°57' E 118°04'0 0.1
2014-Jul-26 12:24N 38°57' E 118°04'0 0.0
2014-Jul-26 11:33N 38°57' E 118°04'0 0.0
2014-Jul-26 10:33N 38°57' E 118°04'0 0.1
2014-Jul-26 09:33N 38°57' E 118°04'0 0.1
2014-Jul-26 08:33N 38°57' E 118°04'0 0.0
2014-Jul-26 07:33N 38°57' E 118°03'0 0.0
2014-Jul-26 06:33N 38°57' E 118°03'0 0.0
2014-Jul-26 05:24N 38°57' E 118°03'0 0.0
2014-Jul-26 04:27N 38°57' E 118°03'0 0.0
2014-Jul-26 03:33N 38°57' E 118°03'0 0.1
2014-Jul-26 02:30N 38°57' E 118°03'0 0.1
2014-Jul-26 01:33N 38°57' E 118°04'0 0.1
2014-Jul-26 00:24N 38°57' E 118°04'0 0.0
2014-Jul-25 23:27N 38°57' E 118°04'0 0.0
2014-Jul-25 22:27N 38°57' E 118°04'0 0.0
2014-Jul-25 21:27N 38°57' E 118°04'0 0.0
2014-Jul-25 20:27N 38°57' E 118°04'0 0.0
2014-Jul-25 19:21N 38°57' E 118°04'0 0.1
2014-Jul-25 18:33N 38°57' E 118°04'0 0.1
2014-Jul-25 17:21N 38°57' E 118°04'0 0.0
2014-Jul-25 16:27N 38°57' E 118°04'0 0.0
2014-Jul-25 14:27N 38°57' E 118°04'0 0.1
2014-Jul-25 13:09N 38°57' E 118°04'0 0.0
2014-Jul-25 12:33N 38°57' E 118°04'0 0.0
2014-Jul-25 11:33N 38°57' E 118°04'0 0.0
2014-Jul-25 10:12N 38°57' E 118°04'0 0.1
2014-Jul-25 08:18N 38°57' E 118°04'0 0.1
2014-Jul-25 07:33N 38°57' E 118°03'0 0.0
2014-Jul-25 06:30N 38°57' E 118°03'0 0.0
2014-Jul-25 05:30N 38°57' E 118°03'0 0.0
2014-Jul-25 04:33N 38°57' E 118°03'0 0.0
2014-Jul-25 03:24N 38°57' E 118°03'0 0.0
2014-Jul-25 02:24N 38°57' E 118°03'0 0.0
2014-Jul-25 01:33N 38°57' E 118°03'0 0.0
2014-Jul-25 00:33N 38°57' E 118°03'0 0.1
2014-Jul-24 23:27N 38°57' E 118°04'0 0.0
2014-Jul-24 22:33N 38°57' E 118°04'0 0.0
2014-Jul-24 21:21N 38°57' E 118°04'0 0.1
2014-Jul-24 20:30N 38°57' E 118°04'0 0.0
2014-Jul-24 19:33N 38°57' E 118°04'0 0.0
2014-Jul-24 18:33N 38°57' E 118°04'0 0.1
2014-Jul-24 17:33N 38°57' E 118°03'0 0.1
2014-Jul-24 16:30N 38°57' E 118°03'0 0.0
2014-Jul-24 15:24N 38°57' E 118°03'0 0.0
2014-Jul-24 14:33N 38°57' E 118°03'0 0.0
2014-Jul-24 13:33N 38°57' E 118°03'0 0.0
2014-Jul-24 12:30N 38°57' E 118°03'0 0.0
2014-Jul-24 11:27N 38°57' E 118°04'0 0.0
2014-Jul-24 10:30N 38°57' E 118°04'0 0.0
2014-Jul-24 09:30N 38°57' E 118°03'0 0.0
2014-Jul-24 08:30N 38°57' E 118°03'0 0.0
2014-Jul-24 07:33N 38°57' E 118°03'0 0.1
2014-Jul-24 06:30N 38°57' E 118°03'0 0.1
2014-Jul-24 05:33N 38°57' E 118°03'0 0.0
2014-Jul-24 04:33N 38°57' E 118°03'14011.6
2014-Jul-23 16:33N 38°34' E 121°00'1212.1
2014-Jul-23 15:33N 38°27' E 121°13'1412.8
2014-Jul-23 14:28N 38°20' E 121°28'1212.9
2014-Jul-23 13:33N 38°14' E 121°41'1312.5
2014-Jul-23 12:33N 38°07' E 121°54'1212.1
2014-Jul-23 11:32N 38°01' E 122°07'1212.5
2014-Jul-23 10:33N 37°55' E 122°21'1412.7
2014-Jul-23 09:26N 37°47' E 122°36'1213.5
2014-Jul-23 08:33N 37°37' E 122°44'1413.5
2014-Jul-23 07:32N 37°25' E 122°53'1413.6
2014-Jul-23 06:32N 37°12' E 122°54'1313.3
2014-Jul-23 05:33N 36°59' E 122°50'1313.0
2014-Jul-23 04:33N 36°50' E 122°38'1212.1
2014-Jul-23 03:32N 36°42' E 122°26'12812.7
2014-Jul-22 17:26N 35°18' E 120°27'1112.5
2014-Jul-22 16:33N 35°11' E 120°16'1212.5
2014-Jul-22 15:33N 35°02' E 120°05'3 3.1
2014-Jul-22 14:33N 35°01' E 120°02'1312.6
2014-Jul-22 13:33N 34°53' E 119°50'1212.1
2014-Jul-22 12:33N 34°47' E 119°37'9 8.9
2014-Jul-22 11:33N 34°45' E 119°27'2 2.3
2014-Jul-22 10:31N 34°45' E 119°24'0 0.0
2014-Jul-22 09:31N 34°45' E 119°24'0 0.0
2014-Jul-22 08:31N 34°45' E 119°24'0 0.0
2014-Jul-22 07:31N 34°45' E 119°24'0 0.0
2014-Jul-22 06:31N 34°45' E 119°24'0 0.0
2014-Jul-22 05:31N 34°45' E 119°24'0 0.0
2014-Jul-22 04:31N 34°45' E 119°24'0 0.0
2014-Jul-22 03:31N 34°45' E 119°24'0 0.0
2014-Jul-22 02:31N 34°45' E 119°24'0 0.0
2014-Jul-22 01:31N 34°45' E 119°24'0 0.0
2014-Jul-22 00:31N 34°45' E 119°24'0 0.0
2014-Jul-21 23:31N 34°45' E 119°24'0 0.0
2014-Jul-21 22:31N 34°45' E 119°24'0 0.0
2014-Jul-21 21:31N 34°45' E 119°24'0 0.0
2014-Jul-21 20:31N 34°45' E 119°24'0 0.0
2014-Jul-21 20:13N 34°45' E 119°24'0 0.0
2014-Jul-21 19:31N 34°45' E 119°24'0 0.0
2014-Jul-21 18:31N 34°45' E 119°24'0 0.0
2014-Jul-21 17:31N 34°45' E 119°24'0 0.0
2014-Jul-21 16:31N 34°45' E 119°24'0 0.0
2014-Jul-21 15:31N 34°45' E 119°24'0 0.0
2014-Jul-21 14:31N 34°45' E 119°24'0 0.0
2014-Jul-21 13:31N 34°45' E 119°24'0 0.0
2014-Jul-21 12:31N 34°45' E 119°24'0 0.0
2014-Jul-21 11:31N 34°45' E 119°24'0 0.0
2014-Jul-21 10:31N 34°45' E 119°24'0 0.0
2014-Jul-21 09:32N 34°45' E 119°24'0 0.0
2014-Jul-21 08:32N 34°45' E 119°24'0 0.0
2014-Jul-21 07:32N 34°45' E 119°24'0 0.0
2014-Jul-21 06:31N 34°45' E 119°24'0 0.0
2014-Jul-21 05:31N 34°45' E 119°24'0 0.0
2014-Jul-21 04:25N 34°45' E 119°24'0 0.0
2014-Jul-21 03:31N 34°45' E 119°24'0 0.0
2014-Jul-21 02:31N 34°45' E 119°24'0 0.0
2014-Jul-21 01:31N 34°45' E 119°24'0 0.0
2014-Jul-21 00:31N 34°45' E 119°24'0 0.0
2014-Jul-20 23:31N 34°45' E 119°24'0 0.0
2014-Jul-20 22:31N 34°45' E 119°24'0 0.0
2014-Jul-20 21:31N 34°45' E 119°24'0 0.0
2014-Jul-20 20:31N 34°45' E 119°24'0 0.0
2014-Jul-20 19:31N 34°45' E 119°24'0 0.0
2014-Jul-20 18:31N 34°45' E 119°24'0 0.0
2014-Jul-20 17:31N 34°45' E 119°24'0 0.0
2014-Jul-20 16:31N 34°45' E 119°24'0 0.0
2014-Jul-20 15:31N 34°45' E 119°24'0 0.0
2014-Jul-20 14:31N 34°45' E 119°24'0 0.0
2014-Jul-20 13:32N 34°45' E 119°24'0 0.0
2014-Jul-20 12:32N 34°45' E 119°24'0 0.0
2014-Jul-20 11:32N 34°45' E 119°24'0 0.0
2014-Jul-20 10:32N 34°45' E 119°24'0 0.0
2014-Jul-20 09:32N 34°45' E 119°24'0 0.0
2014-Jul-20 08:31N 34°45' E 119°24'0 0.0
2014-Jul-20 07:32N 34°45' E 119°24'0 0.0
2014-Jul-20 06:31N 34°45' E 119°24'0 0.0
2014-Jul-20 05:31N 34°45' E 119°24'0 0.0
2014-Jul-20 04:31N 34°45' E 119°24'0 0.0
2014-Jul-20 03:31N 34°45' E 119°24'0 0.0
2014-Jul-20 02:31N 34°45' E 119°24'0 0.0
2014-Jul-20 01:31N 34°45' E 119°24'0 0.0
2014-Jul-20 00:31N 34°45' E 119°24'0 0.0
2014-Jul-19 23:31N 34°45' E 119°24'0 0.0
2014-Jul-19 22:31N 34°45' E 119°24'0 0.0
2014-Jul-19 21:31N 34°45' E 119°24'0 0.0
2014-Jul-19 20:32N 34°45' E 119°24'0 0.0
2014-Jul-19 19:32N 34°45' E 119°24'0 0.0
2014-Jul-19 18:32N 34°45' E 119°24'0 0.0
2014-Jul-19 17:31N 34°45' E 119°24'  
Track history (hours):
 
Tides and Currents Weather Stations Pressure Air Temp Water Temp Dewpoint Dewpoint Depression Visibility Wind Speed Wind Dir Waves Ship Positions

Hermann - S

Last reported at 2014-Jul-29 16:32 UTC. Time now 2014-Jul-29 16:49 UTC.
Position N 38°59' E 117°44'.

Length 190 m; draft 7.9 m.

Type: Cargo ship. MMSI: 305441000.

Date/timePositionNaut miles runAvg speedWind from/ knotsBaromVisibWave heightAir tempDewpointWater temp
2014-Jul-29 16:32N 38°59' E 117°44'0 0.0
2014-Jul-29 15:32N 38°59' E 117°44'0 0.0
2014-Jul-29 14:32N 38°59' E 117°44'0 0.0
2014-Jul-29 13:32N 38°59' E 117°44'0 0.0
2014-Jul-29 12:32N 38°59' E 117°44'0 0.0
2014-Jul-29 11:32N 38°59' E 117°44'0 0.0
2014-Jul-29 10:29N 38°59' E 117°44'0 0.0
2014-Jul-29 09:32N 38°59' E 117°44'0 0.0
2014-Jul-29 08:32N 38°59' E 117°44'0 0.0
2014-Jul-29 07:32N 38°59' E 117°44'0 0.0
2014-Jul-29 06:32N 38°59' E 117°44'0 0.0
2014-Jul-29 05:33N 38°59' E 117°44'0 0.0
2014-Jul-29 04:32N 38°59' E 117°44'0 0.0
2014-Jul-29 03:32N 38°59' E 117°44'0 0.0
2014-Jul-29 02:32N 38°59' E 117°44'0 0.0
2014-Jul-29 01:32N 38°59' E 117°44'0 0.0
2014-Jul-29 00:32N 38°59' E 117°44'0 0.0
2014-Jul-28 23:32N 38°59' E 117°44'2 2.4
2014-Jul-28 22:33N 38°58' E 117°47'8 8.1
2014-Jul-28 21:33N 38°57' E 117°57'5 2.5
2014-Jul-28 19:33N 38°57' E 118°03'0 0.0
2014-Jul-28 18:03N 38°57' E 118°03'0 0.0
2014-Jul-28 17:24N 38°57' E 118°03'0 0.0
2014-Jul-28 16:30N 38°57' E 118°03'0 0.0
2014-Jul-28 15:30N 38°57' E 118°03'0 0.1
2014-Jul-28 14:27N 38°57' E 118°04'0 0.0
2014-Jul-28 13:33N 38°57' E 118°04'0 0.0
2014-Jul-28 12:33N 38°57' E 118°04'0 0.1
2014-Jul-28 11:12N 38°57' E 118°04'0 0.1
2014-Jul-28 10:18N 38°57' E 118°04'0 0.0
2014-Jul-28 09:33N 38°57' E 118°04'0 0.0
2014-Jul-28 08:27N 38°57' E 118°03'0 0.0
2014-Jul-28 07:27N 38°57' E 118°03'0 0.0
2014-Jul-28 06:33N 38°57' E 118°03'0 0.0
2014-Jul-28 05:21N 38°57' E 118°03'0 0.1
2014-Jul-28 04:33N 38°57' E 118°03'0 0.0
2014-Jul-28 03:30N 38°57' E 118°03'0 0.2
2014-Jul-28 02:33N 38°57' E 118°04'0 0.0
2014-Jul-28 01:33N 38°57' E 118°04'0 0.0
2014-Jul-28 00:30N 38°57' E 118°04'0 0.0
2014-Jul-27 23:33N 38°57' E 118°04'0 0.0
2014-Jul-27 20:30N 38°57' E 118°04'0 0.1
2014-Jul-27 19:27N 38°57' E 118°04'0 0.1
2014-Jul-27 18:33N 38°57' E 118°03'0 0.0
2014-Jul-27 17:30N 38°57' E 118°03'0 0.0
2014-Jul-27 16:30N 38°57' E 118°03'0 0.0
2014-Jul-27 15:30N 38°57' E 118°03'0 0.0
2014-Jul-27 14:33N 38°57' E 118°04'0 0.1
2014-Jul-27 13:30N 38°57' E 118°04'0 0.0
2014-Jul-27 12:33N 38°57' E 118°04'0 0.1
2014-Jul-27 11:30N 38°57' E 118°04'0 0.1
2014-Jul-27 10:27N 38°57' E 118°04'0 0.0
2014-Jul-27 09:18N 38°57' E 118°04'0 0.0
2014-Jul-27 08:30N 38°57' E 118°04'0 0.0
2014-Jul-27 07:24N 38°57' E 118°03'0 0.0
2014-Jul-27 06:33N 38°57' E 118°03'0 0.0
2014-Jul-27 05:30N 38°57' E 118°03'0 0.0
2014-Jul-27 04:24N 38°57' E 118°03'0 0.0
2014-Jul-27 03:33N 38°57' E 118°03'0 0.1
2014-Jul-27 02:12N 38°57' E 118°04'0 0.0
2014-Jul-27 01:21N 38°57' E 118°04'0 0.0
2014-Jul-27 00:33N 38°57' E 118°04'0 0.0
2014-Jul-26 23:33N 38°57' E 118°04'0 0.0
2014-Jul-26 22:06N 38°57' E 118°04'0 0.0
2014-Jul-26 21:24N 38°57' E 118°04'0 0.0
2014-Jul-26 20:30N 38°57' E 118°04'0 0.1
2014-Jul-26 19:33N 38°57' E 118°04'0 0.1
2014-Jul-26 18:27N 38°57' E 118°04'0 0.1
2014-Jul-26 17:33N 38°57' E 118°03'0 0.0
2014-Jul-26 16:33N 38°57' E 118°03'0 0.0
2014-Jul-26 15:24N 38°57' E 118°03'0 0.0
2014-Jul-26 14:30N 38°57' E 118°03'0 0.1
2014-Jul-26 13:30N 38°57' E 118°04'0 0.1
2014-Jul-26 12:24N 38°57' E 118°04'0 0.0
2014-Jul-26 11:33N 38°57' E 118°04'0 0.0
2014-Jul-26 10:33N 38°57' E 118°04'0 0.1
2014-Jul-26 09:33N 38°57' E 118°04'0 0.1
2014-Jul-26 08:33N 38°57' E 118°04'0 0.0
2014-Jul-26 07:33N 38°57' E 118°03'0 0.0
2014-Jul-26 06:33N 38°57' E 118°03'0 0.0
2014-Jul-26 05:24N 38°57' E 118°03'0 0.0
2014-Jul-26 04:27N 38°57' E 118°03'0 0.0
2014-Jul-26 03:33N 38°57' E 118°03'0 0.1
2014-Jul-26 02:30N 38°57' E 118°03'0 0.1
2014-Jul-26 01:33N 38°57' E 118°04'0 0.1
2014-Jul-26 00:24N 38°57' E 118°04'0 0.0
2014-Jul-25 23:27N 38°57' E 118°04'0 0.0
2014-Jul-25 22:27N 38°57' E 118°04'0 0.0
2014-Jul-25 21:27N 38°57' E 118°04'0 0.0
2014-Jul-25 20:27N 38°57' E 118°04'0 0.0
2014-Jul-25 19:21N 38°57' E 118°04'0 0.1
2014-Jul-25 18:33N 38°57' E 118°04'0 0.1
2014-Jul-25 17:21N 38°57' E 118°04'0 0.0
2014-Jul-25 16:27N 38°57' E 118°04'0 0.0
2014-Jul-25 14:27N 38°57' E 118°04'0 0.1
2014-Jul-25 13:09N 38°57' E 118°04'0 0.0
2014-Jul-25 12:33N 38°57' E 118°04'0 0.0
2014-Jul-25 11:33N 38°57' E 118°04'0 0.0
2014-Jul-25 10:12N 38°57' E 118°04'0 0.1
2014-Jul-25 08:18N 38°57' E 118°04'0 0.1
2014-Jul-25 07:33N 38°57' E 118°03'0 0.0
2014-Jul-25 06:30N 38°57' E 118°03'0 0.0
2014-Jul-25 05:30N 38°57' E 118°03'0 0.0
2014-Jul-25 04:33N 38°57' E 118°03'0 0.0
2014-Jul-25 03:24N 38°57' E 118°03'0 0.0
2014-Jul-25 02:24N 38°57' E 118°03'0 0.0
2014-Jul-25 01:33N 38°57' E 118°03'0 0.0
2014-Jul-25 00:33N 38°57' E 118°03'0 0.1
2014-Jul-24 23:27N 38°57' E 118°04'0 0.0
2014-Jul-24 22:33N 38°57' E 118°04'0 0.0
2014-Jul-24 21:21N 38°57' E 118°04'0 0.1
2014-Jul-24 20:30N 38°57' E 118°04'0 0.0
2014-Jul-24 19:33N 38°57' E 118°04'0 0.0
2014-Jul-24 18:33N 38°57' E 118°04'0 0.1
2014-Jul-24 17:33N 38°57' E 118°03'0 0.1
2014-Jul-24 16:30N 38°57' E 118°03'0 0.0
2014-Jul-24 15:24N 38°57' E 118°03'0 0.0
2014-Jul-24 14:33N 38°57' E 118°03'0 0.0
2014-Jul-24 13:33N 38°57' E 118°03'0 0.0
2014-Jul-24 12:30N 38°57' E 118°03'0 0.0
2014-Jul-24 11:27N 38°57' E 118°04'0 0.0
2014-Jul-24 10:30N 38°57' E 118°04'0 0.0
2014-Jul-24 09:30N 38°57' E 118°03'0 0.0
2014-Jul-24 08:30N 38°57' E 118°03'0 0.0
2014-Jul-24 07:33N 38°57' E 118°03'0 0.1
2014-Jul-24 06:30N 38°57' E 118°03'0 0.1
2014-Jul-24 05:33N 38°57' E 118°03'0 0.0
2014-Jul-24 04:33N 38°57' E 118°03'14011.6
2014-Jul-23 16:33N 38°34' E 121°00'1212.1
2014-Jul-23 15:33N 38°27' E 121°13'1412.8
2014-Jul-23 14:28N 38°20' E 121°28'1212.9
2014-Jul-23 13:33N 38°14' E 121°41'1312.5
2014-Jul-23 12:33N 38°07' E 121°54'1212.1
2014-Jul-23 11:32N 38°01' E 122°07'1212.5
2014-Jul-23 10:33N 37°55' E 122°21'1412.7
2014-Jul-23 09:26N 37°47' E 122°36'1213.5
2014-Jul-23 08:33N 37°37' E 122°44'1413.5
2014-Jul-23 07:32N 37°25' E 122°53'1413.6
2014-Jul-23 06:32N 37°12' E 122°54'1313.3
2014-Jul-23 05:33N 36°59' E 122°50'1313.0
2014-Jul-23 04:33N 36°50' E 122°38'1212.1
2014-Jul-23 03:32N 36°42' E 122°26'12812.7
2014-Jul-22 17:26N 35°18' E 120°27'1112.5
2014-Jul-22 16:33N 35°11' E 120°16'1212.5
2014-Jul-22 15:33N 35°02' E 120°05'3 3.1
2014-Jul-22 14:33N 35°01' E 120°02'1312.6
2014-Jul-22 13:33N 34°53' E 119°50'1212.1
2014-Jul-22 12:33N 34°47' E 119°37'9 8.9
2014-Jul-22 11:33N 34°45' E 119°27'2 2.3
2014-Jul-22 10:31N 34°45' E 119°24'0 0.0
2014-Jul-22 09:31N 34°45' E 119°24'0 0.0
2014-Jul-22 08:31N 34°45' E 119°24'0 0.0
2014-Jul-22 07:31N 34°45' E 119°24'0 0.0
2014-Jul-22 06:31N 34°45' E 119°24'0 0.0
2014-Jul-22 05:31N 34°45' E 119°24'0 0.0
2014-Jul-22 04:31N 34°45' E 119°24'0 0.0
2014-Jul-22 03:31N 34°45' E 119°24'0 0.0
2014-Jul-22 02:31N 34°45' E 119°24'0 0.0
2014-Jul-22 01:31N 34°45' E 119°24'0 0.0
2014-Jul-22 00:31N 34°45' E 119°24'0 0.0
2014-Jul-21 23:31N 34°45' E 119°24'0 0.0
2014-Jul-21 22:31N 34°45' E 119°24'0 0.0
2014-Jul-21 21:31N 34°45' E 119°24'0 0.0
2014-Jul-21 20:31N 34°45' E 119°24'0 0.0
2014-Jul-21 20:13N 34°45' E 119°24'0 0.0
2014-Jul-21 19:31N 34°45' E 119°24'0 0.0
2014-Jul-21 18:31N 34°45' E 119°24'0 0.0
2014-Jul-21 17:31N 34°45' E 119°24'0 0.0
2014-Jul-21 16:31N 34°45' E 119°24'0 0.0
2014-Jul-21 15:31N 34°45' E 119°24'0 0.0
2014-Jul-21 14:31N 34°45' E 119°24'0 0.0
2014-Jul-21 13:31N 34°45' E 119°24'0 0.0
2014-Jul-21 12:31N 34°45' E 119°24'0 0.0
2014-Jul-21 11:31N 34°45' E 119°24'0 0.0
2014-Jul-21 10:31N 34°45' E 119°24'0 0.0
2014-Jul-21 09:32N 34°45' E 119°24'0 0.0
2014-Jul-21 08:32N 34°45' E 119°24'0 0.0
2014-Jul-21 07:32N 34°45' E 119°24'0 0.0
2014-Jul-21 06:31N 34°45' E 119°24'0 0.0
2014-Jul-21 05:31N 34°45' E 119°24'0 0.0
2014-Jul-21 04:25N 34°45' E 119°24'0 0.0
2014-Jul-21 03:31N 34°45' E 119°24'0 0.0
2014-Jul-21 02:31N 34°45' E 119°24'0 0.0
2014-Jul-21 01:31N 34°45' E 119°24'0 0.0
2014-Jul-21 00:31N 34°45' E 119°24'0 0.0
2014-Jul-20 23:31N 34°45' E 119°24'0 0.0
2014-Jul-20 22:31N 34°45' E 119°24'0 0.0
2014-Jul-20 21:31N 34°45' E 119°24'0 0.0
2014-Jul-20 20:31N 34°45' E 119°24'0 0.0
2014-Jul-20 19:31N 34°45' E 119°24'0 0.0
2014-Jul-20 18:31N 34°45' E 119°24'0 0.0
2014-Jul-20 17:31N 34°45' E 119°24'0 0.0
2014-Jul-20 16:31N 34°45' E 119°24'0 0.0
2014-Jul-20 15:31N 34°45' E 119°24'0 0.0
2014-Jul-20 14:31N 34°45' E 119°24'0 0.0
2014-Jul-20 13:32N 34°45' E 119°24'0 0.0
2014-Jul-20 12:32N 34°45' E 119°24'0 0.0
2014-Jul-20 11:32N 34°45' E 119°24'0 0.0
2014-Jul-20 10:32N 34°45' E 119°24'0 0.0
2014-Jul-20 09:32N 34°45' E 119°24'0 0.0
2014-Jul-20 08:31N 34°45' E 119°24'0 0.0
2014-Jul-20 07:32N 34°45' E 119°24'0 0.0
2014-Jul-20 06:31N 34°45' E 119°24'0 0.0
2014-Jul-20 05:31N 34°45' E 119°24'0 0.0
2014-Jul-20 04:31N 34°45' E 119°24'0 0.0
2014-Jul-20 03:31N 34°45' E 119°24'0 0.0
2014-Jul-20 02:31N 34°45' E 119°24'0 0.0
2014-Jul-20 01:31N 34°45' E 119°24'0 0.0
2014-Jul-20 00:31N 34°45' E 119°24'0 0.0
2014-Jul-19 23:31N 34°45' E 119°24'0 0.0
2014-Jul-19 22:31N 34°45' E 119°24'0 0.0
2014-Jul-19 21:31N 34°45' E 119°24'0 0.0
2014-Jul-19 20:32N 34°45' E 119°24'0 0.0
2014-Jul-19 19:32N 34°45' E 119°24'0 0.0
2014-Jul-19 18:32N 34°45' E 119°24'0 0.0
2014-Jul-19 17:31N 34°45' E 119°24'  

Dump ship's entire track history